Terminal Aerodrome Forecast
Issued by NWS Cleveland, OH

Home | Current Version | Previous Version | Graphics & Text | Print | Product List | Glossary On
Versions: 1 2 3 4 5 6 7 8 9 10 11 12 13 14 15 16 17 18 19
000
FTUS41 KCLE 181137
TAFERI
TAF
KERI 181137Z 1812/1912 19015G30KT P6SM VCSH OVC025
     FM181900 19020G35KT 2SM TSRA OVC003CB
     FM182200 21020G35KT 3SM -SHRA OVC003
      TEMPO 1822/1823 VRB30G45KT 1SM +TSRA OVC003CB
     FM190100 23020G35KT 4SM -SHRA BR OVC003
     FM190300 27019G33KT 4SM -SHRA BR OVC007
     FM190800 30030G45KT 4SM -SHRA BR OVC015=

USA.gov is the U.S. government's official web portal to all federal, state and local government web resources and services.